sensor_id;sensor_type;location;lat;lon;timestamp;pressure;altitude;pressure_sealevel;temperature;humidity
59435;BME280;45241;49.768;8.636;2023-04-06T00:02:24;100474.63;;;6.67;51.45
59435;BME280;45241;49.768;8.636;2023-04-06T00:04:50;100477.06;;;6.53;51.63
59435;BME280;45241;49.768;8.636;2023-04-06T00:07:15;100474.91;;;6.56;51.23
59435;BME280;45241;49.768;8.636;2023-04-06T00:09:40;100470.41;;;6.57;51.31
59435;BME280;45241;49.768;8.636;2023-04-06T00:12:06;100461.47;;;6.66;53.10
59435;BME280;45241;49.768;8.636;2023-04-06T00:14:31;100465.78;;;6.67;52.83
59435;BME280;45241;49.768;8.636;2023-04-06T00:16:56;100463.66;;;6.79;52.72
59435;BME280;45241;49.768;8.636;2023-04-06T00:19:22;100455.34;;;6.73;52.68
59435;BME280;45241;49.768;8.636;2023-04-06T00:21:47;100468.16;;;6.70;52.80
59435;BME280;45241;49.768;8.636;2023-04-06T00:24:12;100459.31;;;6.69;52.58
59435;BME280;45241;49.768;8.636;2023-04-06T00:26:37;100458.44;;;6.61;52.27
59435;BME280;45241;49.768;8.636;2023-04-06T00:29:02;100461.56;;;6.56;52.34
59435;BME280;45241;49.768;8.636;2023-04-06T00:31:28;100459.41;;;6.52;53.82
59435;BME280;45241;49.768;8.636;2023-04-06T00:33:53;100453.41;;;6.50;54.22
59435;BME280;45241;49.768;8.636;2023-04-06T00:36:18;100449.41;;;6.46;53.43
59435;BME280;45241;49.768;8.636;2023-04-06T00:38:43;100451.34;;;6.35;53.83
59435;BME280;45241;49.768;8.636;2023-04-06T00:41:09;100450.34;;;6.36;52.32
59435;BME280;45241;49.768;8.636;2023-04-06T00:43:34;100447.88;;;6.43;53.08
59435;BME280;45241;49.768;8.636;2023-04-06T00:45:59;100442.63;;;6.59;53.49
59435;BME280;45241;49.768;8.636;2023-04-06T00:48:24;100440.81;;;6.68;53.23
59435;BME280;45241;49.768;8.636;2023-04-06T00:50:49;100439.69;;;6.70;53.57
59435;BME280;45241;49.768;8.636;2023-04-06T00:53:15;100431.53;;;6.72;53.51
59435;BME280;45241;49.768;8.636;2023-04-06T00:55:41;100424.38;;;6.72;53.88
59435;BME280;45241;49.768;8.636;2023-04-06T00:58:06;100420.53;;;6.75;54.30
59435;BME280;45241;49.768;8.636;2023-04-06T01:00:32;100424.19;;;6.74;53.97
59435;BME280;45241;49.768;8.636;2023-04-06T01:02:57;100416.88;;;6.76;53.88
59435;BME280;45241;49.768;8.636;2023-04-06T01:05:23;100410.88;;;6.74;54.37
59435;BME280;45241;49.768;8.636;2023-04-06T01:07:48;100418.34;;;6.62;54.81
59435;BME280;45241;49.768;8.636;2023-04-06T01:10:25;100417.63;;;6.52;55.33
59435;BME280;45241;49.768;8.636;2023-04-06T01:12:51;100410.97;;;6.48;54.86
59435;BME280;45241;49.768;8.636;2023-04-06T01:15:16;100409.09;;;6.40;55.04
59435;BME280;45241;49.768;8.636;2023-04-06T01:17:41;100414.47;;;6.57;54.63
59435;BME280;45241;49.768;8.636;2023-04-06T01:20:07;100412.50;;;6.25;55.74
59435;BME280;45241;49.768;8.636;2023-04-06T01:22:32;100414.66;;;6.21;55.61
59435;BME280;45241;49.768;8.636;2023-04-06T01:24:57;100419.25;;;6.11;55.85
59435;BME280;45241;49.768;8.636;2023-04-06T01:27:22;100417.81;;;5.91;55.75
59435;BME280;45241;49.768;8.636;2023-04-06T01:29:48;100415.53;;;5.96;56.17
59435;BME280;45241;49.768;8.636;2023-04-06T01:32:13;100428.91;;;5.86;56.99
59435;BME280;45241;49.768;8.636;2023-04-06T01:34:38;100423.66;;;5.68;58.57
59435;BME280;45241;49.768;8.636;2023-04-06T01:37:03;100416.66;;;5.67;58.39
59435;BME280;45241;49.768;8.636;2023-04-06T01:39:29;100415.69;;;5.68;57.39
59435;BME280;45241;49.768;8.636;2023-04-06T01:41:54;100416.97;;;5.64;57.92
59435;BME280;45241;49.768;8.636;2023-04-06T01:44:19;100415.91;;;5.57;58.19
59435;BME280;45241;49.768;8.636;2023-04-06T01:46:45;100412.53;;;5.73;57.64
59435;BME280;45241;49.768;8.636;2023-04-06T01:49:11;100415.44;;;5.79;58.39
59435;BME280;45241;49.768;8.636;2023-04-06T01:51:36;100414.59;;;5.79;58.40
59435;BME280;45241;49.768;8.636;2023-04-06T01:54:01;100406.22;;;5.74;57.61
59435;BME280;45241;49.768;8.636;2023-04-06T01:56:26;100407.91;;;5.75;57.72
59435;BME280;45241;49.768;8.636;2023-04-06T01:58:52;100402.97;;;5.80;57.02
59435;BME280;45241;49.768;8.636;2023-04-06T02:01:17;100403.09;;;5.78;57.70
59435;BME280;45241;49.768;8.636;2023-04-06T02:03:42;100395.91;;;5.71;57.56
59435;BME280;45241;49.768;8.636;2023-04-06T02:06:07;100389.84;;;5.61;57.45
59435;BME280;45241;49.768;8.636;2023-04-06T02:08:32;100389.69;;;5.62;57.89
59435;BME280;45241;49.768;8.636;2023-04-06T02:10:58;100394.31;;;5.60;57.37
59435;BME280;45241;49.768;8.636;2023-04-06T02:13:23;100399.72;;;5.50;57.92
59435;BME280;45241;49.768;8.636;2023-04-06T02:15:48;100391.34;;;5.63;58.11
59435;BME280;45241;49.768;8.636;2023-04-06T02:18:13;100392.66;;;5.59;57.70
59435;BME280;45241;49.768;8.636;2023-04-06T02:20:38;100394.66;;;5.57;57.83
59435;BME280;45241;49.768;8.636;2023-04-06T02:23:04;100387.44;;;5.49;58.17
59435;BME280;45241;49.768;8.636;2023-04-06T02:25:29;100380.59;;;5.47;58.10
59435;BME280;45241;49.768;8.636;2023-04-06T02:27:54;100388.59;;;5.47;58.42
59435;BME280;45241;49.768;8.636;2023-04-06T02:30:20;100389.81;;;5.35;58.47
59435;BME280;45241;49.768;8.636;2023-04-06T02:32:45;100392.75;;;5.49;58.78
59435;BME280;45241;49.768;8.636;2023-04-06T02:35:10;100393.53;;;5.42;59.05
59435;BME280;45241;49.768;8.636;2023-04-06T02:37:35;100387.22;;;5.25;59.92
59435;BME280;45241;49.768;8.636;2023-04-06T02:40:01;100390.72;;;5.25;59.53
59435;BME280;45241;49.768;8.636;2023-04-06T02:42:26;100386.56;;;5.23;59.73
59435;BME280;45241;49.768;8.636;2023-04-06T02:44:51;100387.94;;;5.09;59.99
59435;BME280;45241;49.768;8.636;2023-04-06T02:47:16;100397.13;;;4.97;59.75
59435;BME280;45241;49.768;8.636;2023-04-06T02:49:42;100390.75;;;4.90;59.72
59435;BME280;45241;49.768;8.636;2023-04-06T02:52:07;100397.56;;;4.92;60.79
59435;BME280;45241;49.768;8.636;2023-04-06T02:54:32;100400.31;;;5.01;59.99
59435;BME280;45241;49.768;8.636;2023-04-06T02:56:57;100397.66;;;5.01;59.82
59435;BME280;45241;49.768;8.636;2023-04-06T02:59:23;100395.22;;;4.89;60.21
59435;BME280;45241;49.768;8.636;2023-04-06T03:01:48;100390.56;;;4.74;60.92
59435;BME280;45241;49.768;8.636;2023-04-06T03:04:13;100393.16;;;4.83;60.81
59435;BME280;45241;49.768;8.636;2023-04-06T03:06:38;100391.66;;;4.81;60.48
59435;BME280;45241;49.768;8.636;2023-04-06T03:09:03;100395.81;;;4.83;60.74
59435;BME280;45241;49.768;8.636;2023-04-06T03:11:29;100394.59;;;4.78;60.98
59435;BME280;45241;49.768;8.636;2023-04-06T03:13:54;100395.38;;;4.88;59.71
59435;BME280;45241;49.768;8.636;2023-04-06T03:16:19;100397.28;;;4.95;59.34
59435;BME280;45241;49.768;8.636;2023-04-06T03:18:45;100389.53;;;5.02;59.63
59435;BME280;45241;49.768;8.636;2023-04-06T03:21:11;100393.78;;;4.77;60.61
59435;BME280;45241;49.768;8.636;2023-04-06T03:23:37;100396.91;;;4.90;60.00
59435;BME280;45241;49.768;8.636;2023-04-06T03:26:02;100398.09;;;4.96;59.81
59435;BME280;45241;49.768;8.636;2023-04-06T03:28:28;100399.63;;;4.81;60.23
59435;BME280;45241;49.768;8.636;2023-04-06T03:30:53;100397.63;;;4.83;60.36
59435;BME280;45241;49.768;8.636;2023-04-06T03:33:19;100397.41;;;4.76;60.73
59435;BME280;45241;49.768;8.636;2023-04-06T03:35:44;100400.28;;;4.83;60.30
59435;BME280;45241;49.768;8.636;2023-04-06T03:38:09;100406.75;;;4.80;60.48
59435;BME280;45241;49.768;8.636;2023-04-06T03:40:35;100402.44;;;4.79;60.72
59435;BME280;45241;49.768;8.636;2023-04-06T03:43:00;100405.31;;;4.86;60.44
59435;BME280;45241;49.768;8.636;2023-04-06T03:45:25;100408.72;;;4.78;60.48
59435;BME280;45241;49.768;8.636;2023-04-06T03:47:50;100407.06;;;4.77;60.62
59435;BME280;45241;49.768;8.636;2023-04-06T03:50:16;100405.91;;;4.80;60.59
59435;BME280;45241;49.768;8.636;2023-04-06T03:52:41;100404.00;;;4.72;60.89
59435;BME280;45241;49.768;8.636;2023-04-06T03:55:06;100396.72;;;4.74;61.04
59435;BME280;45241;49.768;8.636;2023-04-06T03:57:32;100403.16;;;4.72;61.19
59435;BME280;45241;49.768;8.636;2023-04-06T03:59:57;100404.31;;;4.69;60.75
59435;BME280;45241;49.768;8.636;2023-04-06T04:02:22;100401.34;;;4.72;60.45
59435;BME280;45241;49.768;8.636;2023-04-06T04:04:48;100397.31;;;4.68;60.42
59435;BME280;45241;49.768;8.636;2023-04-06T04:07:13;100400.81;;;4.69;60.63
59435;BME280;45241;49.768;8.636;2023-04-06T04:09:38;100397.63;;;4.65;61.03
59435;BME280;45241;49.768;8.636;2023-04-06T04:12:03;100399.44;;;4.64;60.96
59435;BME280;45241;49.768;8.636;2023-04-06T04:14:29;100398.19;;;4.59;61.53
59435;BME280;45241;49.768;8.636;2023-04-06T04:16:54;100398.78;;;4.62;60.67
59435;BME280;45241;49.768;8.636;2023-04-06T04:19:19;100403.38;;;4.60;60.60
59435;BME280;45241;49.768;8.636;2023-04-06T04:21:45;100404.75;;;4.64;60.62
59435;BME280;45241;49.768;8.636;2023-04-06T04:24:11;100413.81;;;4.44;60.71
59435;BME280;45241;49.768;8.636;2023-04-06T04:26:36;100417.97;;;4.47;60.58
59435;BME280;45241;49.768;8.636;2023-04-06T04:29:02;100425.25;;;4.45;60.95
59435;BME280;45241;49.768;8.636;2023-04-06T04:31:27;100420.84;;;4.63;60.37
59435;BME280;45241;49.768;8.636;2023-04-06T04:33:52;100421.75;;;4.44;61.21
59435;BME280;45241;49.768;8.636;2023-04-06T04:36:17;100424.53;;;4.52;60.81
59435;BME280;45241;49.768;8.636;2023-04-06T04:38:43;100433.03;;;4.56;60.77
59435;BME280;45241;49.768;8.636;2023-04-06T04:41:08;100424.75;;;4.59;60.97
59435;BME280;45241;49.768;8.636;2023-04-06T04:43:33;100418.03;;;4.64;60.98
59435;BME280;45241;49.768;8.636;2023-04-06T04:45:58;100415.53;;;4.63;60.97
59435;BME280;45241;49.768;8.636;2023-04-06T04:48:24;100432.91;;;4.48;61.12
59435;BME280;45241;49.768;8.636;2023-04-06T04:50:49;100431.41;;;4.45;60.61
59435;BME280;45241;49.768;8.636;2023-04-06T04:53:14;100424.00;;;4.49;60.99
59435;BME280;45241;49.768;8.636;2023-04-06T04:55:40;100428.50;;;4.39;61.31
59435;BME280;45241;49.768;8.636;2023-04-06T04:58:05;100430.72;;;4.43;61.45
59435;BME280;45241;49.768;8.636;2023-04-06T05:00:30;100435.03;;;4.44;61.67
59435;BME280;45241;49.768;8.636;2023-04-06T05:02:56;100427.69;;;4.38;61.37
59435;BME280;45241;49.768;8.636;2023-04-06T05:05:21;100436.63;;;4.37;61.89
59435;BME280;45241;49.768;8.636;2023-04-06T05:07:46;100436.41;;;4.48;61.67
59435;BME280;45241;49.768;8.636;2023-04-06T05:10:12;100436.19;;;4.32;63.51
59435;BME280;45241;49.768;8.636;2023-04-06T05:12:37;100440.25;;;4.36;63.41
59435;BME280;45241;49.768;8.636;2023-04-06T05:15:02;100447.16;;;4.47;62.38
59435;BME280;45241;49.768;8.636;2023-04-06T05:17:28;100440.03;;;4.47;61.86
59435;BME280;45241;49.768;8.636;2023-04-06T05:19:53;100436.06;;;4.33;62.02
59435;BME280;45241;49.768;8.636;2023-04-06T05:22:19;100445.31;;;4.20;62.46
59435;BME280;45241;49.768;8.636;2023-04-06T05:24:44;100445.19;;;4.21;62.24
59435;BME280;45241;49.768;8.636;2023-04-06T05:27:10;100445.06;;;4.23;62.72
59435;BME280;45241;49.768;8.636;2023-04-06T05:29:35;100440.53;;;4.33;61.98
59435;BME280;45241;49.768;8.636;2023-04-06T05:32:00;100441.94;;;4.37;62.07
59435;BME280;45241;49.768;8.636;2023-04-06T05:34:26;100436.16;;;4.42;61.72
59435;BME280;45241;49.768;8.636;2023-04-06T05:36:51;100443.53;;;4.48;60.83
59435;BME280;45241;49.768;8.636;2023-04-06T05:39:16;100441.47;;;4.42;61.82
59435;BME280;45241;49.768;8.636;2023-04-06T05:41:42;100443.53;;;4.48;62.11
59435;BME280;45241;49.768;8.636;2023-04-06T05:44:07;100440.50;;;4.43;61.56
59435;BME280;45241;49.768;8.636;2023-04-06T05:46:32;100451.47;;;4.57;62.26
59435;BME280;45241;49.768;8.636;2023-04-06T05:48:57;100452.41;;;4.66;61.90
59435;BME280;45241;49.768;8.636;2023-04-06T05:51:23;100452.44;;;4.84;62.44
59435;BME280;45241;49.768;8.636;2023-04-06T05:53:48;100451.53;;;4.93;62.78
59435;BME280;45241;49.768;8.636;2023-04-06T05:56:13;100453.31;;;5.20;62.14
59435;BME280;45241;49.768;8.636;2023-04-06T05:58:38;100444.63;;;5.00;62.34
59435;BME280;45241;49.768;8.636;2023-04-06T06:01:04;100447.44;;;4.99;62.28
59435;BME280;45241;49.768;8.636;2023-04-06T06:03:29;100452.38;;;4.93;62.03
59435;BME280;45241;49.768;8.636;2023-04-06T06:05:59;100456.66;;;5.04;61.90
59435;BME280;45241;49.768;8.636;2023-04-06T06:08:24;100448.75;;;5.12;61.63
59435;BME280;45241;49.768;8.636;2023-04-06T06:10:50;100443.66;;;5.19;61.49
59435;BME280;45241;49.768;8.636;2023-04-06T06:13:15;100444.50;;;5.19;61.79
59435;BME280;45241;49.768;8.636;2023-04-06T06:15:40;100438.50;;;5.35;61.26
59435;BME280;45241;49.768;8.636;2023-04-06T06:18:05;100439.19;;;5.37;61.60
59435;BME280;45241;49.768;8.636;2023-04-06T06:20:30;100435.13;;;5.51;61.13
59435;BME280;45241;49.768;8.636;2023-04-06T06:22:56;100445.53;;;5.62;60.82
59435;BME280;45241;49.768;8.636;2023-04-06T06:25:21;100441.88;;;5.63;60.87
59435;BME280;45241;49.768;8.636;2023-04-06T06:27:46;100441.81;;;5.73;60.25
59435;BME280;45241;49.768;8.636;2023-04-06T06:30:12;100445.78;;;5.95;60.45
59435;BME280;45241;49.768;8.636;2023-04-06T06:32:37;100446.19;;;6.08;60.16
59435;BME280;45241;49.768;8.636;2023-04-06T06:35:02;100444.72;;;6.13;59.87
59435;BME280;45241;49.768;8.636;2023-04-06T06:37:28;100449.84;;;6.07;59.76
59435;BME280;45241;49.768;8.636;2023-04-06T06:39:53;100446.63;;;6.21;59.49
59435;BME280;45241;49.768;8.636;2023-04-06T06:42:18;100441.81;;;6.25;60.03
59435;BME280;45241;49.768;8.636;2023-04-06T06:44:43;100436.28;;;6.18;59.77
59435;BME280;45241;49.768;8.636;2023-04-06T06:47:08;100439.41;;;6.13;60.02
59435;BME280;45241;49.768;8.636;2023-04-06T06:49:34;100444.88;;;6.12;59.44
59435;BME280;45241;49.768;8.636;2023-04-06T06:51:59;100441.84;;;6.33;59.37
59435;BME280;45241;49.768;8.636;2023-04-06T06:54:24;100444.06;;;6.46;59.42
59435;BME280;45241;49.768;8.636;2023-04-06T06:56:50;100441.25;;;6.47;58.42
59435;BME280;45241;49.768;8.636;2023-04-06T06:59:15;100442.81;;;6.58;58.40
59435;BME280;45241;49.768;8.636;2023-04-06T07:01:41;100448.81;;;6.68;60.21
59435;BME280;45241;49.768;8.636;2023-04-06T07:04:06;100436.53;;;6.75;58.98
59435;BME280;45241;49.768;8.636;2023-04-06T07:06:32;100441.53;;;6.78;58.30
59435;BME280;45241;49.768;8.636;2023-04-06T07:08:57;100444.91;;;6.88;58.72
59435;BME280;45241;49.768;8.636;2023-04-06T07:11:23;100443.75;;;6.99;58.25
59435;BME280;45241;49.768;8.636;2023-04-06T07:13:48;100444.59;;;6.99;57.42
59435;BME280;45241;49.768;8.636;2023-04-06T07:16:13;100454.97;;;7.03;58.01
59435;BME280;45241;49.768;8.636;2023-04-06T07:18:38;100453.81;;;7.13;58.08
59435;BME280;45241;49.768;8.636;2023-04-06T07:21:04;100446.16;;;7.35;57.81
59435;BME280;45241;49.768;8.636;2023-04-06T07:23:29;100443.19;;;7.38;58.21
59435;BME280;45241;49.768;8.636;2023-04-06T07:25:54;100444.03;;;7.63;57.43
59435;BME280;45241;49.768;8.636;2023-04-06T07:28:20;100446.84;;;7.77;57.60
59435;BME280;45241;49.768;8.636;2023-04-06T07:30:45;100445.00;;;7.86;57.01
59435;BME280;45241;49.768;8.636;2023-04-06T07:33:11;100443.47;;;8.00;56.71
59435;BME280;45241;49.768;8.636;2023-04-06T07:35:36;100443.94;;;8.19;57.81
59435;BME280;45241;49.768;8.636;2023-04-06T07:38:01;100440.75;;;8.32;56.06
59435;BME280;45241;49.768;8.636;2023-04-06T07:40:27;100442.56;;;8.40;56.99
59435;BME280;45241;49.768;8.636;2023-04-06T07:42:52;100441.88;;;8.38;54.53
59435;BME280;45241;49.768;8.636;2023-04-06T07:45:17;100436.72;;;8.36;54.17
59435;BME280;45241;49.768;8.636;2023-04-06T07:47:43;100444.13;;;8.65;54.06
59435;BME280;45241;49.768;8.636;2023-04-06T07:50:08;100444.88;;;8.82;52.63
59435;BME280;45241;49.768;8.636;2023-04-06T07:52:34;100442.47;;;8.95;53.32
59435;BME280;45241;49.768;8.636;2023-04-06T07:54:59;100445.00;;;9.20;52.90
59435;BME280;45241;49.768;8.636;2023-04-06T07:57:25;100445.34;;;9.17;51.97
59435;BME280;45241;49.768;8.636;2023-04-06T07:59:50;100443.97;;;8.98;50.42
59435;BME280;45241;49.768;8.636;2023-04-06T08:02:15;100446.50;;;9.22;50.97
59435;BME280;45241;49.768;8.636;2023-04-06T08:04:41;100445.53;;;9.15;49.15
59435;BME280;45241;49.768;8.636;2023-04-06T08:07:06;100444.28;;;9.26;49.62
59435;BME280;45241;49.768;8.636;2023-04-06T08:09:31;100451.94;;;9.29;48.71
59435;BME280;45241;49.768;8.636;2023-04-06T08:11:57;100442.03;;;9.37;48.76
59435;BME280;45241;49.768;8.636;2023-04-06T08:14:22;100442.31;;;9.51;47.80
59435;BME280;45241;49.768;8.636;2023-04-06T08:16:47;100447.19;;;9.47;48.08
59435;BME280;45241;49.768;8.636;2023-04-06T08:19:12;100441.59;;;9.57;47.46
59435;BME280;45241;49.768;8.636;2023-04-06T08:21:38;100439.19;;;9.62;47.01
59435;BME280;45241;49.768;8.636;2023-04-06T08:24:05;100440.06;;;9.77;46.62
59435;BME280;45241;49.768;8.636;2023-04-06T08:26:31;100447.31;;;9.91;47.49
59435;BME280;45241;49.768;8.636;2023-04-06T08:28:56;100442.06;;;9.98;46.97
59435;BME280;45241;49.768;8.636;2023-04-06T08:31:21;100436.34;;;10.16;47.07
59435;BME280;45241;49.768;8.636;2023-04-06T08:33:46;100439.13;;;10.22;45.98
59435;BME280;45241;49.768;8.636;2023-04-06T08:36:13;100443.09;;;10.12;46.62
59435;BME280;45241;49.768;8.636;2023-04-06T08:38:38;100439.03;;;10.16;46.54
59435;BME280;45241;49.768;8.636;2023-04-06T08:41:11;100439.56;;;9.96;46.41
59435;BME280;45241;49.768;8.636;2023-04-06T08:44:22;100443.09;;;10.12;47.13
59435;BME280;45241;49.768;8.636;2023-04-06T08:46:23;100440.22;;;10.13;45.99
59435;BME280;45241;49.768;8.636;2023-04-06T08:48:53;100439.41;;;10.13;46.48
59435;BME280;45241;49.768;8.636;2023-04-06T08:51:19;100449.38;;;10.34;47.30
59435;BME280;45241;49.768;8.636;2023-04-06T08:53:45;100442.53;;;10.31;47.49
59435;BME280;45241;49.768;8.636;2023-04-06T08:56:11;100445.88;;;10.63;48.48
59435;BME280;45241;49.768;8.636;2023-04-06T08:58:37;100438.00;;;10.46;47.76
59435;BME280;45241;49.768;8.636;2023-04-06T09:01:06;100446.03;;;10.76;48.26
59435;BME280;45241;49.768;8.636;2023-04-06T09:03:32;100444.22;;;10.62;46.24
59435;BME280;45241;49.768;8.636;2023-04-06T09:05:59;100448.19;;;10.51;45.74
59435;BME280;45241;49.768;8.636;2023-04-06T09:08:25;100433.19;;;10.56;45.71
59435;BME280;45241;49.768;8.636;2023-04-06T09:10:51;100440.38;;;10.71;45.95
59435;BME280;45241;49.768;8.636;2023-04-06T09:13:17;100437.41;;;10.80;45.90
59435;BME280;45241;49.768;8.636;2023-04-06T09:15:42;100437.78;;;10.92;46.70
59435;BME280;45241;49.768;8.636;2023-04-06T09:18:07;100438.16;;;11.10;46.24
59435;BME280;45241;49.768;8.636;2023-04-06T09:20:33;100436.06;;;11.42;46.14
59435;BME280;45241;49.768;8.636;2023-04-06T09:22:58;100430.75;;;11.49;45.55
59435;BME280;45241;49.768;8.636;2023-04-06T09:25:24;100420.88;;;11.77;45.94
59435;BME280;45241;49.768;8.636;2023-04-06T09:27:59;100430.00;;;11.55;45.35
59435;BME280;45241;49.768;8.636;2023-04-06T09:30:25;100428.56;;;11.59;45.01
59435;BME280;45241;49.768;8.636;2023-04-06T09:32:52;100420.00;;;11.70;45.45
59435;BME280;45241;49.768;8.636;2023-04-06T09:35:19;100426.84;;;11.72;45.16
59435;BME280;45241;49.768;8.636;2023-04-06T09:37:47;100423.81;;;11.82;44.87
59435;BME280;45241;49.768;8.636;2023-04-06T09:40:13;100423.31;;;11.72;43.64
59435;BME280;45241;49.768;8.636;2023-04-06T09:42:42;100429.03;;;11.90;44.82
59435;BME280;45241;49.768;8.636;2023-04-06T09:45:08;100425.16;;;11.93;43.83
59435;BME280;45241;49.768;8.636;2023-04-06T09:47:35;100419.38;;;11.96;43.99
59435;BME280;45241;49.768;8.636;2023-04-06T09:50:00;100424.44;;;12.12;44.22
59435;BME280;45241;49.768;8.636;2023-04-06T09:52:33;100420.19;;;12.24;43.52
59435;BME280;45241;49.768;8.636;2023-04-06T09:55:03;100414.41;;;12.27;45.83
59435;BME280;45241;49.768;8.636;2023-04-06T09:57:37;100430.41;;;12.08;43.35
59435;BME280;45241;49.768;8.636;2023-04-06T10:00:07;100421.28;;;12.30;43.64
59435;BME280;45241;49.768;8.636;2023-04-06T10:07:56;100412.72;;;12.61;42.31
59435;BME280;45241;49.768;8.636;2023-04-06T10:10:22;100418.16;;;12.74;41.62
59435;BME280;45241;49.768;8.636;2023-04-06T10:12:47;100415.72;;;12.86;42.06
59435;BME280;45241;49.768;8.636;2023-04-06T10:15:12;100415.81;;;13.06;42.38
59435;BME280;45241;49.768;8.636;2023-04-06T10:17:38;100410.00;;;13.02;41.01
59435;BME280;45241;49.768;8.636;2023-04-06T10:20:10;100410.63;;;13.04;41.96
59435;BME280;45241;49.768;8.636;2023-04-06T10:25:35;100414.22;;;13.25;42.42
59435;BME280;45241;49.768;8.636;2023-04-06T10:30:25;100408.81;;;13.31;40.11
59435;BME280;45241;49.768;8.636;2023-04-06T10:32:51;100411.53;;;13.44;41.28
59435;BME280;45241;49.768;8.636;2023-04-06T10:35:16;100393.94;;;13.55;41.27
59435;BME280;45241;49.768;8.636;2023-04-06T10:38:01;100404.72;;;13.88;40.74
59435;BME280;45241;49.768;8.636;2023-04-06T10:40:26;100400.56;;;13.72;40.73
59435;BME280;45241;49.768;8.636;2023-04-06T10:42:52;100410.53;;;13.78;40.53
59435;BME280;45241;49.768;8.636;2023-04-06T10:45:22;100410.91;;;13.95;40.11
59435;BME280;45241;49.768;8.636;2023-04-06T10:47:47;100394.50;;;14.17;40.85
59435;BME280;45241;49.768;8.636;2023-04-06T10:50:16;100403.63;;;14.29;39.80
59435;BME280;45241;49.768;8.636;2023-04-06T10:52:43;100400.69;;;14.24;40.17
59435;BME280;45241;49.768;8.636;2023-04-06T10:55:08;100399.25;;;14.28;39.16
59435;BME280;45241;49.768;8.636;2023-04-06T10:57:35;100393.31;;;14.71;39.79
59435;BME280;45241;49.768;8.636;2023-04-06T11:00:03;100391.63;;;15.14;40.41
59435;BME280;45241;49.768;8.636;2023-04-06T11:02:28;100401.13;;;14.85;38.17
59435;BME280;45241;49.768;8.636;2023-04-06T11:04:55;100391.72;;;15.01;38.84
59435;BME280;45241;49.768;8.636;2023-04-06T11:07:24;100389.34;;;15.18;39.90
59435;BME280;45241;49.768;8.636;2023-04-06T11:09:50;100380.34;;;14.92;39.26
59435;BME280;45241;49.768;8.636;2023-04-06T11:12:25;100387.69;;;15.42;38.74
59435;BME280;45241;49.768;8.636;2023-04-06T11:17:25;100371.75;;;15.09;38.18
59435;BME280;45241;49.768;8.636;2023-04-06T11:19:50;100375.56;;;15.82;38.84
59435;BME280;45241;49.768;8.636;2023-04-06T11:22:15;100369.50;;;15.62;36.48
59435;BME280;45241;49.768;8.636;2023-04-06T11:24:41;100360.19;;;15.51;36.67
59435;BME280;45241;49.768;8.636;2023-04-06T11:27:06;100354.56;;;15.60;36.96
59435;BME280;45241;49.768;8.636;2023-04-06T11:29:32;100363.59;;;15.72;37.21
59435;BME280;45241;49.768;8.636;2023-04-06T11:34:28;100351.88;;;15.53;35.46
59435;BME280;45241;49.768;8.636;2023-04-06T11:37:00;100354.13;;;15.63;34.12
59435;BME280;45241;49.768;8.636;2023-04-06T11:39:27;100341.06;;;15.53;35.43
59435;BME280;45241;49.768;8.636;2023-04-06T11:41:54;100343.00;;;16.32;35.90
59435;BME280;45241;49.768;8.636;2023-04-06T11:44:54;100349.41;;;16.38;35.30
59435;BME280;45241;49.768;8.636;2023-04-06T11:47:14;100334.38;;;16.24;34.98
59435;BME280;45241;49.768;8.636;2023-04-06T11:49:40;100329.72;;;16.12;35.44
59435;BME280;45241;49.768;8.636;2023-04-06T11:52:16;100331.13;;;16.33;35.03
59435;BME280;45241;49.768;8.636;2023-04-06T11:54:41;100338.59;;;15.76;35.77
59435;BME280;45241;49.768;8.636;2023-04-06T11:57:07;100332.75;;;15.79;34.24
59435;BME280;45241;49.768;8.636;2023-04-06T11:59:33;100329.63;;;15.82;35.06
59435;BME280;45241;49.768;8.636;2023-04-06T12:01:58;100332.00;;;15.91;35.09
59435;BME280;45241;49.768;8.636;2023-04-06T12:04:23;100326.38;;;15.74;34.22
59435;BME280;45241;49.768;8.636;2023-04-06T12:06:48;100324.38;;;15.88;34.72
59435;BME280;45241;49.768;8.636;2023-04-06T12:09:14;100314.75;;;16.28;34.25
59435;BME280;45241;49.768;8.636;2023-04-06T12:11:39;100321.56;;;16.31;34.21
59435;BME280;45241;49.768;8.636;2023-04-06T12:14:06;100318.81;;;16.01;34.22
59435;BME280;45241;49.768;8.636;2023-04-06T12:16:32;100314.38;;;16.06;33.91
59435;BME280;45241;49.768;8.636;2023-04-06T12:18:57;100310.59;;;16.62;33.99
59435;BME280;45241;49.768;8.636;2023-04-06T12:21:22;100315.72;;;17.12;33.80
59435;BME280;45241;49.768;8.636;2023-04-06T12:23:48;100314.75;;;16.47;32.97
59435;BME280;45241;49.768;8.636;2023-04-06T12:26:13;100308.53;;;16.58;33.25
59435;BME280;45241;49.768;8.636;2023-04-06T12:28:38;100303.19;;;16.21;33.50
59435;BME280;45241;49.768;8.636;2023-04-06T12:31:03;100294.75;;;16.48;33.80
59435;BME280;45241;49.768;8.636;2023-04-06T12:33:29;100303.88;;;16.35;33.50
59435;BME280;45241;49.768;8.636;2023-04-06T12:35:54;100312.66;;;16.12;33.52
59435;BME280;45241;49.768;8.636;2023-04-06T12:38:19;100308.59;;;16.21;33.75
59435;BME280;45241;49.768;8.636;2023-04-06T12:40:45;100301.94;;;16.54;35.08
59435;BME280;45241;49.768;8.636;2023-04-06T12:43:10;100301.69;;;16.07;34.01
59435;BME280;45241;49.768;8.636;2023-04-06T12:45:37;100299.59;;;16.09;33.89
59435;BME280;45241;49.768;8.636;2023-04-06T12:48:03;100304.00;;;16.40;33.67
59435;BME280;45241;49.768;8.636;2023-04-06T12:50:28;100298.38;;;16.05;34.68
59435;BME280;45241;49.768;8.636;2023-04-06T12:52:53;100301.88;;;16.60;33.57
59435;BME280;45241;49.768;8.636;2023-04-06T12:55:18;100289.53;;;15.98;33.16
59435;BME280;45241;49.768;8.636;2023-04-06T12:57:44;100292.38;;;16.21;33.76
59435;BME280;45241;49.768;8.636;2023-04-06T13:00:10;100286.38;;;15.82;33.21
59435;BME280;45241;49.768;8.636;2023-04-06T13:02:37;100297.63;;;16.34;34.20
59435;BME280;45241;49.768;8.636;2023-04-06T13:05:03;100296.22;;;16.92;34.26
59435;BME280;45241;49.768;8.636;2023-04-06T13:07:28;100286.75;;;17.24;33.08